Indian Creek, Illinois
Current Conditions -  °F | °C
As of 11:52 AM on Thursday 29 Jan 2015 (Local Time) from KPWK Reporting Station
Haze Haze  
Wind Chill: 23°   Ceiling: 2100
Heat Index: 33°   Visibility: 6mi
Dew Point: 25°   Wind: 14mph
Humidity: 72%   Direction: 330°NNW
Pressure: 29.95"   Gusts: 23mph
Location:  42.223°N, 87.9651°W
Report Text: KPWK 291752Z 33012G20KT 6SM HZ OVC021 01/M04 A2995 RMK AO2 SLP149 60000 T00061039 10017 20006 51037
Loading
Personal Weather Stations






























Interactive Weather Map New forecast layout! Learn more

10-Day Weather Forecast

Advertisements
Track Severe Weather on mobile